createdAt,value
2024-04-10T00:01:34.054Z,3
2024-04-10T00:03:34.272Z,2
2024-04-10T00:05:34.525Z,3
2024-04-10T00:07:34.335Z,3
2024-04-10T00:09:34.432Z,4
2024-04-10T00:11:34.570Z,3
2024-04-10T00:13:34.620Z,2
2024-04-10T00:15:34.676Z,4
2024-04-10T00:17:34.978Z,2
2024-04-10T00:19:34.874Z,2
2024-04-10T00:21:34.982Z,3
2024-04-10T00:23:35.130Z,2
2024-04-10T00:25:35.146Z,3
2024-04-10T00:27:35.278Z,3
2024-04-10T00:29:35.413Z,3
2024-04-10T00:31:35.431Z,2
2024-04-10T00:33:35.634Z,3
2024-04-10T00:35:35.713Z,4
2024-04-10T00:37:35.700Z,3
2024-04-10T00:39:35.792Z,4
2024-04-10T00:41:35.954Z,3
2024-04-10T00:43:36.010Z,3
2024-04-10T00:45:36.069Z,2
2024-04-10T00:47:36.349Z,4
2024-04-10T00:49:36.235Z,3
2024-04-10T00:51:36.341Z,2
2024-04-10T00:53:36.622Z,3
2024-04-10T00:55:36.520Z,3
2024-04-10T00:57:36.610Z,3
2024-04-10T00:59:36.778Z,3
2024-04-10T01:02:06.842Z,3
2024-04-10T01:04:07.079Z,3
2024-04-10T01:06:07.080Z,4
2024-04-10T01:08:07.235Z,3
2024-04-10T01:10:07.303Z,3
2024-04-10T01:12:07.498Z,4
2024-04-10T01:14:07.579Z,4
2024-04-10T01:16:07.737Z,4
2024-04-10T01:18:07.970Z,4
2024-04-10T01:20:07.934Z,3
2024-04-10T01:22:07.999Z,3
2024-04-10T01:24:08.094Z,3
2024-04-10T01:26:08.324Z,3
2024-04-10T01:28:08.337Z,3
2024-04-10T01:30:08.467Z,2
2024-04-10T01:32:08.666Z,3
2024-04-10T01:34:08.832Z,2
2024-04-10T01:36:08.936Z,3
2024-04-10T01:40:09.021Z,3
2024-04-10T01:42:09.122Z,3
2024-04-10T01:44:09.360Z,4
2024-04-10T01:46:09.336Z,6
2024-04-10T01:48:09.651Z,4
2024-04-10T01:50:09.627Z,2
2024-04-10T01:52:09.678Z,3
2024-04-10T01:54:09.812Z,3
2024-04-10T01:56:09.913Z,2
2024-04-10T01:58:10.026Z,4
2024-04-10T02:00:10.186Z,4
2024-04-10T02:02:10.268Z,6
2024-04-10T02:04:10.419Z,5
2024-04-10T02:06:10.448Z,4
2024-04-10T02:08:10.594Z,3
2024-04-10T02:10:10.695Z,5
2024-04-10T02:12:10.897Z,3
2024-04-10T02:14:10.948Z,4
2024-04-10T02:16:11.027Z,6
2024-04-10T02:18:11.214Z,4
2024-04-10T02:20:11.445Z,5
2024-04-10T02:22:11.321Z,3
2024-04-10T02:24:11.466Z,3
2024-04-10T02:26:11.604Z,4
2024-04-10T02:28:11.661Z,3
2024-04-10T02:30:11.747Z,4
2024-04-10T02:32:11.931Z,3
2024-04-10T02:34:12.116Z,3
2024-04-10T02:36:12.052Z,4
2024-04-10T02:38:12.195Z,3
2024-04-10T02:44:12.501Z,3
2024-04-10T02:46:12.590Z,3
2024-04-10T02:48:12.698Z,4
2024-04-10T02:50:12.836Z,3
2024-04-10T02:52:13.108Z,3
2024-04-10T02:54:12.984Z,3
2024-04-10T02:56:13.174Z,6
2024-04-10T02:58:13.167Z,4
2024-04-10T03:00:13.290Z,3
2024-04-10T03:02:13.477Z,4
2024-04-10T03:04:13.533Z,4
2024-04-10T03:06:13.621Z,3
2024-04-10T03:08:13.762Z,3
2024-04-10T03:10:13.798Z,2
2024-04-10T03:12:13.946Z,4
2024-04-10T03:14:14.177Z,5
2024-04-10T03:16:14.177Z,5
2024-04-10T03:18:14.316Z,5
2024-04-10T03:20:14.426Z,5
2024-04-10T03:22:14.415Z,4
2024-04-10T03:24:14.533Z,4
2024-04-10T03:26:14.703Z,4
2024-04-10T03:28:14.714Z,4
2024-04-10T03:30:14.840Z,6
2024-04-10T03:32:15.028Z,5
2024-04-10T03:34:15.221Z,5
2024-04-10T03:36:15.093Z,4
2024-04-10T03:38:15.221Z,6
2024-04-10T03:40:15.297Z,4
2024-04-10T03:42:15.394Z,3
2024-04-10T03:44:15.588Z,4
2024-04-10T03:46:15.606Z,5
2024-04-10T03:48:15.947Z,4
2024-04-10T03:50:18.987Z,3
2024-04-10T03:52:15.870Z,4
2024-04-10T03:54:15.953Z,5
2024-04-10T03:56:16.088Z,6
2024-04-10T03:58:16.166Z,6
2024-04-10T04:00:16.264Z,4
2024-04-10T04:02:16.430Z,5
2024-04-10T04:04:16.487Z,4
2024-04-10T04:06:16.542Z,4
2024-04-10T04:08:16.655Z,5
2024-04-10T04:10:16.705Z,6
2024-04-10T04:12:18.056Z,6
2024-04-10T04:14:16.952Z,4
2024-04-10T04:16:17.032Z,6
2024-04-10T04:18:17.146Z,4
2024-04-10T04:20:17.254Z,3
2024-04-10T04:22:17.250Z,5
2024-04-10T04:24:17.370Z,5
2024-04-10T04:26:17.492Z,4
2024-04-10T04:28:17.520Z,5
2024-04-10T04:30:17.695Z,4
2024-04-10T04:32:17.851Z,5
2024-04-10T04:34:18.117Z,6
2024-04-10T04:36:17.876Z,3
2024-04-10T04:38:18.028Z,6
2024-04-10T04:40:18.064Z,5
2024-04-10T04:44:18.264Z,5
2024-04-10T04:46:18.543Z,5
2024-04-10T04:48:18.659Z,4
2024-04-10T04:50:18.536Z,5
2024-04-10T04:52:18.580Z,3
2024-04-10T04:54:18.662Z,4
2024-04-10T04:56:18.852Z,5
2024-04-10T04:58:48.937Z,5
2024-04-10T05:00:49.040Z,5
2024-04-10T05:02:49.181Z,4
2024-04-10T05:04:49.288Z,4
2024-04-10T05:06:49.376Z,6
2024-04-10T05:08:49.497Z,3
2024-04-10T05:10:49.631Z,5
2024-04-10T05:12:49.715Z,5
2024-04-10T05:14:49.807Z,6
2024-04-10T05:16:49.979Z,5
2024-04-10T05:18:50.081Z,6
2024-04-10T05:20:50.229Z,5
2024-04-10T05:22:50.300Z,7
2024-04-10T05:24:50.398Z,8
2024-04-10T05:26:50.490Z,6
2024-04-10T05:28:50.642Z,6
2024-04-10T05:30:50.686Z,6
2024-04-10T05:32:51.020Z,6
2024-04-10T05:34:51.007Z,6
2024-04-10T05:38:51.261Z,4
2024-04-10T05:40:51.282Z,5
2024-04-10T05:42:51.349Z,4
2024-04-10T05:44:51.472Z,6
2024-04-10T05:46:51.628Z,6
2024-04-10T05:48:51.863Z,4
2024-04-10T05:50:51.799Z,7
2024-04-10T05:52:51.953Z,5
2024-04-10T05:54:52.008Z,4
2024-04-10T05:56:52.095Z,4
2024-04-10T05:58:52.272Z,4
2024-04-10T06:00:54.189Z,3
2024-04-10T06:02:52.500Z,5
2024-04-10T06:04:52.563Z,6
2024-04-10T06:06:52.649Z,6
2024-04-10T06:08:52.756Z,4
2024-04-10T06:10:52.956Z,7
2024-04-10T06:12:52.978Z,6
2024-04-10T06:14:53.109Z,5
2024-04-10T06:16:53.235Z,4
2024-04-10T06:18:53.313Z,3
2024-04-10T06:20:53.431Z,4
2024-04-10T06:22:53.562Z,3
2024-04-10T06:24:53.672Z,4
2024-04-10T06:26:53.799Z,2
2024-04-10T06:28:53.852Z,3
2024-04-10T06:30:53.973Z,2
2024-04-10T06:32:54.319Z,2
2024-04-10T06:34:54.182Z,2
2024-04-10T06:36:54.287Z,3
2024-04-10T06:38:54.370Z,4
2024-04-10T06:40:54.549Z,3
2024-04-10T06:42:54.574Z,3
2024-04-10T06:44:54.649Z,3
2024-04-10T06:46:54.914Z,5
2024-04-10T06:48:55.077Z,2
2024-04-10T06:50:54.994Z,4
2024-04-10T06:52:55.043Z,3
2024-04-10T06:54:55.142Z,3
2024-04-10T06:58:55.366Z,4
2024-04-10T07:00:55.507Z,3
2024-04-10T07:02:55.557Z,2
2024-04-10T07:04:57.352Z,3
2024-04-10T07:06:55.740Z,5
2024-04-10T07:08:55.814Z,2
2024-04-10T07:10:55.995Z,5
2024-04-10T07:14:56.100Z,4
2024-04-10T07:16:56.211Z,4
2024-04-10T07:18:56.290Z,4
2024-04-10T07:20:56.397Z,3
2024-04-10T07:22:56.633Z,3
2024-04-10T07:24:56.591Z,3
2024-04-10T07:26:56.671Z,3
2024-04-10T07:28:56.904Z,2
2024-04-10T07:30:56.897Z,4
2024-04-10T07:32:57.081Z,3
2024-04-10T07:34:57.046Z,3
2024-04-10T07:36:57.123Z,3
2024-04-10T07:38:57.242Z,3
2024-04-10T07:40:57.344Z,2
2024-04-10T07:42:57.402Z,3
2024-04-10T07:44:57.671Z,2
2024-04-10T07:46:57.621Z,3
2024-04-10T07:48:58.095Z,5
2024-04-10T07:50:57.743Z,4
2024-04-10T07:52:57.882Z,2
2024-04-10T07:54:57.922Z,3
2024-04-10T07:56:58.027Z,3
2024-04-10T07:58:58.179Z,3
2024-04-10T08:00:58.271Z,4
2024-04-10T08:02:58.305Z,3
2024-04-10T08:05:28.536Z,4
2024-04-10T08:07:28.502Z,3
2024-04-10T08:09:28.620Z,2
2024-04-10T08:11:28.897Z,3
2024-04-10T08:13:28.879Z,3
2024-04-10T08:15:28.966Z,2
2024-04-10T08:17:29.110Z,3
2024-04-10T08:19:29.217Z,3
2024-04-10T08:21:29.290Z,2
2024-04-10T08:23:29.509Z,2
2024-04-10T08:25:29.525Z,3
2024-04-10T08:27:29.635Z,4
2024-04-10T08:29:29.828Z,4
2024-04-10T08:31:29.936Z,3
2024-04-10T08:33:30.265Z,3
2024-04-10T08:35:30.101Z,2
2024-04-10T08:37:30.206Z,4
2024-04-10T08:39:30.302Z,2
2024-04-10T08:41:30.414Z,4
2024-04-10T08:43:30.502Z,1
2024-04-10T08:45:30.609Z,3
2024-04-10T08:47:30.965Z,3
2024-04-10T08:49:30.792Z,3
2024-04-10T08:51:30.959Z,3
2024-04-10T08:53:30.989Z,3
2024-04-10T08:55:31.102Z,4
2024-04-10T08:57:31.225Z,4
2024-04-10T08:59:31.331Z,4
2024-04-10T09:01:31.698Z,4
2024-04-10T09:03:31.726Z,2
2024-04-10T09:29:27.303Z,4
2024-04-10T09:31:26.868Z,4
2024-04-10T09:33:27.158Z,3
2024-04-10T09:35:27.082Z,4
2024-04-10T09:37:57.205Z,3
2024-04-10T09:39:57.373Z,4
2024-04-10T09:41:57.560Z,3
2024-04-10T09:43:57.539Z,4
2024-04-10T09:49:57.871Z,3
2024-04-10T09:51:57.996Z,7
2024-04-10T09:53:58.172Z,4
2024-04-10T09:55:58.231Z,3
2024-04-10T09:57:58.322Z,4
2024-04-10T09:59:58.498Z,4
2024-04-10T10:01:58.583Z,3
2024-04-10T10:03:58.785Z,3
2024-04-10T10:05:58.986Z,4
2024-04-10T10:07:58.859Z,3
2024-04-10T10:09:59.018Z,3
2024-04-10T10:11:59.114Z,4
2024-04-10T10:13:59.152Z,4
2024-04-10T10:15:59.333Z,4
2024-04-10T10:18:02.922Z,6
2024-04-10T10:19:59.470Z,4
2024-04-10T10:21:59.539Z,3
2024-04-10T10:23:59.782Z,8
2024-04-10T10:25:59.768Z,10
2024-04-10T10:27:59.892Z,3
2024-04-10T10:29:59.987Z,4
2024-04-10T10:32:00.048Z,5
2024-04-10T10:36:00.262Z,3
2024-04-10T10:38:02.283Z,4
2024-04-10T10:40:00.557Z,6
2024-04-10T10:42:00.793Z,5
2024-04-10T10:44:00.719Z,5
2024-04-10T10:46:00.865Z,4
2024-04-10T10:48:01.003Z,4
2024-04-10T10:50:01.016Z,3
2024-04-10T10:52:01.102Z,7
2024-04-10T10:54:01.237Z,5
2024-04-10T10:56:01.259Z,8
2024-04-10T10:58:01.347Z,4
2024-04-10T11:00:01.528Z,3
2024-04-10T11:02:01.536Z,6
2024-04-10T11:04:01.812Z,3
2024-04-10T11:06:31.888Z,3
2024-04-10T11:08:31.928Z,4
2024-04-10T11:10:31.980Z,3
2024-04-10T11:12:32.226Z,3
2024-04-10T11:14:32.248Z,3
2024-04-10T11:16:32.484Z,2
2024-04-10T11:18:32.647Z,5
2024-04-10T11:20:32.601Z,3
2024-04-10T11:22:32.706Z,3
2024-04-10T11:24:32.772Z,4
2024-04-10T11:26:32.890Z,4
2024-04-10T11:28:33.040Z,5
2024-04-10T11:30:33.116Z,4
2024-04-10T11:32:33.295Z,3
2024-04-10T11:34:33.485Z,4
2024-04-10T11:36:33.559Z,4
2024-04-10T11:38:33.610Z,2
2024-04-10T11:40:33.678Z,2
2024-04-10T11:42:33.825Z,3
2024-04-10T11:44:34.011Z,4
2024-04-10T11:46:33.988Z,3
2024-04-10T11:48:34.289Z,2
2024-04-10T11:50:34.227Z,6
2024-04-10T11:52:37.201Z,4
2024-04-10T11:54:34.400Z,2
2024-04-10T11:56:34.590Z,3
2024-04-10T11:58:34.588Z,2
2024-04-10T12:00:34.684Z,3
2024-04-10T12:02:34.908Z,2
2024-04-10T12:04:34.890Z,4
2024-04-10T12:06:34.945Z,2
2024-04-10T12:08:35.061Z,2
2024-04-10T12:14:35.366Z,3
2024-04-10T12:16:35.416Z,2
2024-04-10T12:18:35.730Z,2
2024-04-10T12:22:35.688Z,4
2024-04-10T12:24:35.737Z,2
2024-04-10T12:27:05.979Z,2
2024-04-10T12:31:06.130Z,3
2024-04-10T12:33:06.397Z,2
2024-04-10T12:35:06.362Z,3
2024-04-10T12:37:06.485Z,2
2024-04-10T12:39:06.704Z,3
2024-04-10T12:41:06.685Z,2
2024-04-10T12:43:06.774Z,3
2024-04-10T12:45:06.939Z,2
2024-04-10T12:47:07.028Z,2
2024-04-10T12:49:07.102Z,2
2024-04-10T12:51:07.242Z,2
2024-04-10T12:53:07.315Z,3
2024-04-10T12:55:07.429Z,1
2024-04-10T12:57:07.564Z,2
2024-04-10T12:59:07.809Z,2
2024-04-10T13:01:07.734Z,1
2024-04-10T13:03:07.990Z,2
2024-04-10T13:05:08.065Z,4
2024-04-10T13:07:08.054Z,3
2024-04-10T13:09:08.260Z,2
2024-04-10T13:11:08.254Z,2
2024-04-10T13:13:12.008Z,3
2024-04-10T13:15:08.515Z,2
2024-04-10T13:17:08.529Z,3
2024-04-10T13:19:08.647Z,1
2024-04-10T13:21:08.763Z,2
2024-04-10T13:23:08.789Z,2
2024-04-10T13:25:08.898Z,3
2024-04-10T13:27:08.992Z,2
2024-04-10T13:29:09.071Z,2
2024-04-10T13:31:10.778Z,2
2024-04-10T13:35:09.334Z,3
2024-04-10T13:37:09.392Z,4
2024-04-10T13:39:09.528Z,4
2024-04-10T13:41:09.581Z,3
2024-04-10T13:43:39.718Z,4
2024-04-10T13:45:39.879Z,4
2024-04-10T13:47:39.977Z,3
2024-04-10T13:49:40.043Z,3
2024-04-10T13:51:40.147Z,1
2024-04-10T13:53:40.315Z,3
2024-04-10T13:55:40.382Z,2
2024-04-10T13:57:40.511Z,4
2024-04-10T13:59:40.804Z,3
2024-04-10T14:01:40.822Z,2
2024-04-10T14:03:41.248Z,3
2024-04-10T14:05:40.984Z,2
2024-04-10T14:07:41.098Z,3
2024-04-10T14:09:41.176Z,3
2024-04-10T14:11:41.406Z,3
2024-04-10T14:13:41.384Z,2
2024-04-10T14:15:41.524Z,1
2024-04-10T14:17:41.738Z,2
2024-04-10T14:19:41.717Z,4
2024-04-10T14:21:41.812Z,2
2024-04-10T14:23:42.141Z,2
2024-04-10T14:25:42.012Z,4
2024-04-10T14:27:42.099Z,2
2024-04-10T14:29:42.342Z,2
2024-04-10T14:31:42.295Z,4
2024-04-10T14:33:42.802Z,4
2024-04-10T14:35:42.538Z,4
2024-04-10T14:37:42.629Z,6
2024-04-10T14:39:42.737Z,3
2024-04-10T14:41:42.910Z,3
2024-04-10T14:43:42.872Z,2
2024-04-10T14:47:43.159Z,4
2024-04-10T14:49:43.152Z,3
2024-04-10T14:51:43.254Z,4
2024-04-10T14:53:43.449Z,2
2024-04-10T14:57:43.545Z,2
2024-04-10T14:59:43.674Z,2
2024-04-10T15:01:43.692Z,2
2024-04-10T15:03:44.198Z,3
2024-04-10T15:05:43.940Z,3
2024-04-10T15:08:14.016Z,3
2024-04-10T15:10:14.152Z,1
2024-04-10T15:12:14.313Z,3
2024-04-10T15:14:14.341Z,3
2024-04-10T15:16:14.500Z,4
2024-04-10T15:18:14.738Z,5
2024-04-10T15:20:14.785Z,3
2024-04-10T15:24:14.968Z,2
2024-04-10T15:26:15.044Z,3
2024-04-10T15:28:15.089Z,2
2024-04-10T15:30:15.192Z,3
2024-04-10T15:32:15.313Z,2
2024-04-10T15:34:15.894Z,2
2024-04-10T15:36:16.005Z,4
2024-04-10T15:38:15.644Z,3
2024-04-10T15:40:15.771Z,3
2024-04-10T15:42:15.873Z,3
2024-04-10T15:44:15.995Z,3
2024-04-10T15:46:16.043Z,3
2024-04-10T15:48:16.259Z,5
2024-04-10T15:50:16.337Z,3
2024-04-10T15:52:30.916Z,4
2024-04-10T15:54:16.469Z,4
2024-04-10T15:56:16.621Z,3
2024-04-10T15:58:16.616Z,3
2024-04-10T16:00:16.727Z,3
2024-04-10T16:02:16.917Z,2
2024-04-10T16:04:17.028Z,3
2024-04-10T16:06:17.188Z,2
2024-04-10T16:08:17.145Z,3
2024-04-10T16:10:17.264Z,2
2024-04-10T16:12:17.387Z,2
2024-04-10T16:14:17.440Z,3
2024-04-10T16:16:17.540Z,3
2024-04-10T16:18:17.670Z,3
2024-04-10T16:20:17.749Z,3
2024-04-10T16:22:17.864Z,3
2024-04-10T16:24:17.890Z,3
2024-04-10T16:26:18.056Z,2
2024-04-10T16:28:18.057Z,3
2024-04-10T16:30:18.137Z,5
2024-04-10T16:32:18.240Z,2
2024-04-10T16:36:18.422Z,2
2024-04-10T16:38:18.510Z,3
2024-04-10T16:42:18.664Z,3
2024-04-10T16:44:18.756Z,3
2024-04-10T16:46:18.955Z,2
2024-04-10T16:48:48.996Z,3
2024-04-10T16:50:49.087Z,3
2024-04-10T16:52:49.210Z,2
2024-04-10T16:54:49.487Z,3
2024-04-10T16:56:49.476Z,4
2024-04-10T16:58:49.506Z,5
2024-04-10T17:00:49.777Z,3
2024-04-10T17:04:49.866Z,4
2024-04-10T17:06:49.931Z,2
2024-04-10T17:08:50.096Z,3
2024-04-10T17:10:50.172Z,3
2024-04-10T17:12:50.264Z,4
2024-04-10T17:14:50.410Z,5
2024-04-10T17:16:50.507Z,3
2024-04-10T17:18:50.639Z,2
2024-04-10T17:20:50.897Z,4
2024-04-10T17:22:50.803Z,2
2024-04-10T17:24:50.906Z,2
2024-04-10T17:26:51.088Z,4
2024-04-10T17:28:52.803Z,2
2024-04-10T17:30:51.236Z,2
2024-04-10T17:32:51.468Z,4
2024-04-10T17:34:51.573Z,2
2024-04-10T17:36:51.558Z,3
2024-04-10T17:38:51.734Z,3
2024-04-10T17:40:51.798Z,7
2024-04-10T17:42:51.842Z,6
2024-04-10T17:44:51.997Z,5
2024-04-10T17:46:52.093Z,5
2024-04-10T17:48:52.257Z,5
2024-04-10T17:50:52.296Z,3
2024-04-10T17:52:52.356Z,4
2024-04-10T17:54:52.462Z,4
2024-04-10T17:56:52.606Z,7
2024-04-10T17:58:52.636Z,5
2024-04-10T18:00:52.758Z,6
2024-04-10T18:02:52.924Z,4
2024-04-10T18:04:52.992Z,4
2024-04-10T18:06:53.009Z,4
2024-04-10T18:08:53.282Z,5
2024-04-10T18:10:53.249Z,3
2024-04-10T18:12:53.334Z,3
2024-04-10T18:14:53.454Z,3
2024-04-10T18:16:53.507Z,4
2024-04-10T18:18:53.862Z,4
2024-04-10T18:20:53.776Z,4
2024-04-10T18:22:53.802Z,3
2024-04-10T18:24:53.892Z,6
2024-04-10T18:26:54.063Z,3
2024-04-10T18:28:54.107Z,2
2024-04-10T18:30:54.182Z,3
2024-04-10T18:32:54.529Z,3
2024-04-10T18:34:54.349Z,3
2024-04-10T18:36:54.442Z,4
2024-04-10T18:38:54.561Z,3
2024-04-10T18:40:54.595Z,3
2024-04-10T18:42:54.653Z,7
2024-04-10T18:44:54.796Z,4
2024-04-10T18:49:25.253Z,4
2024-04-10T18:51:25.457Z,6
2024-04-10T18:53:25.220Z,6
2024-04-10T18:55:25.345Z,5
2024-04-10T18:57:25.430Z,4
2024-04-10T18:59:25.592Z,5
2024-04-10T19:01:26.101Z,6
2024-04-10T19:03:25.954Z,7
2024-04-10T19:05:25.933Z,8
2024-04-10T19:07:29.601Z,6
2024-04-10T19:09:26.113Z,7
2024-04-10T19:11:26.291Z,5
2024-04-10T19:13:26.300Z,4
2024-04-10T19:15:26.430Z,8
2024-04-10T19:17:26.582Z,3
2024-04-10T19:19:26.669Z,7
2024-04-10T19:21:26.759Z,5
2024-04-10T19:23:26.875Z,4
2024-04-10T19:27:27.076Z,3
2024-04-10T19:29:27.253Z,3
2024-04-10T19:31:27.294Z,4
2024-04-10T19:33:27.574Z,2
2024-04-10T19:35:27.550Z,6
2024-04-10T19:37:27.593Z,3
2024-04-10T19:39:27.766Z,4
2024-04-10T19:41:27.836Z,4
2024-04-10T19:43:27.973Z,4
2024-04-10T19:45:28.012Z,4
2024-04-10T19:47:28.375Z,3
2024-04-10T19:49:28.370Z,4
2024-04-10T19:51:28.399Z,5
2024-04-10T19:53:28.534Z,3
2024-04-10T19:55:28.531Z,4
2024-04-10T19:57:28.643Z,4
2024-04-10T19:59:28.831Z,6
2024-04-10T20:01:28.895Z,3
2024-04-10T20:03:29.026Z,4
2024-04-10T20:05:29.065Z,5
2024-04-10T20:07:31.502Z,3
2024-04-10T20:09:29.212Z,4
2024-04-10T20:11:29.353Z,3
2024-04-10T20:13:29.435Z,5
2024-04-10T20:15:29.565Z,4
2024-04-10T20:17:29.655Z,4
2024-04-10T20:19:29.966Z,4
2024-04-10T20:21:29.820Z,5
2024-04-10T20:23:29.970Z,4
2024-04-10T20:25:30.005Z,3
2024-04-10T20:27:30.085Z,3
2024-04-10T20:29:30.265Z,4
2024-04-10T20:31:30.440Z,4
2024-04-10T20:33:30.512Z,4
2024-04-10T20:35:30.613Z,3
2024-04-10T20:37:30.607Z,5
2024-04-10T20:39:30.665Z,8
2024-04-10T20:41:30.815Z,8
2024-04-10T20:43:30.853Z,4
2024-04-10T20:45:30.934Z,5
2024-04-10T20:47:31.232Z,3
2024-04-10T20:49:31.318Z,5
2024-04-10T20:51:31.248Z,5
2024-04-10T20:53:31.348Z,4
2024-04-10T20:55:31.429Z,3
2024-04-10T20:57:31.498Z,5
2024-04-10T20:59:31.649Z,4
2024-04-10T21:01:31.844Z,3
2024-04-10T21:03:31.849Z,4
2024-04-10T21:05:31.918Z,4
2024-04-10T21:07:31.966Z,4
2024-04-10T21:09:32.049Z,6
2024-04-10T21:11:32.253Z,7
2024-04-10T21:13:32.219Z,6
2024-04-10T21:15:32.307Z,7
2024-04-10T21:17:32.769Z,6
2024-04-10T21:22:02.649Z,4
2024-04-10T21:24:02.809Z,4
2024-04-10T21:26:02.889Z,4
2024-04-10T21:28:03.000Z,4
2024-04-10T21:30:03.289Z,8
2024-04-10T21:32:03.252Z,3
2024-04-10T21:34:03.457Z,5
2024-04-10T21:36:03.587Z,4
2024-04-10T21:38:03.583Z,6
2024-04-10T21:40:03.691Z,5
2024-04-10T21:42:03.948Z,3
2024-04-10T21:44:03.944Z,3
2024-04-10T21:46:04.022Z,3
2024-04-10T21:48:04.714Z,4
2024-04-10T21:50:04.386Z,5
2024-04-10T21:52:04.351Z,3
2024-04-10T21:54:04.571Z,4
2024-04-10T21:58:04.679Z,4
2024-04-10T22:00:26.319Z,6
2024-04-10T22:02:09.175Z,3
2024-04-10T22:04:05.286Z,5
2024-04-10T22:06:05.388Z,4
2024-04-10T22:10:05.317Z,5
2024-04-10T22:12:05.436Z,3
2024-04-10T22:14:05.476Z,3
2024-04-10T22:16:05.959Z,3
2024-04-10T22:18:08.143Z,4
2024-04-10T22:20:05.810Z,4
2024-04-10T22:22:05.885Z,5
2024-04-10T22:26:06.068Z,4
2024-04-10T22:28:06.193Z,6
2024-04-10T22:30:06.332Z,4
2024-04-10T22:32:06.386Z,5
2024-04-10T22:34:06.810Z,4
2024-04-10T22:36:06.712Z,9
2024-04-10T22:38:06.696Z,8
2024-04-10T22:40:06.792Z,7
2024-04-10T22:42:06.942Z,6
2024-04-10T22:44:06.972Z,5
2024-04-10T22:46:07.167Z,5
2024-04-10T22:48:07.335Z,9
2024-04-10T22:50:07.283Z,6
2024-04-10T22:52:07.404Z,8
2024-04-10T22:54:07.552Z,11
2024-04-10T22:56:07.592Z,11
2024-04-10T22:58:07.687Z,11
2024-04-10T23:00:07.810Z,11
2024-04-10T23:02:07.938Z,10
2024-04-10T23:04:08.108Z,10
2024-04-10T23:06:08.686Z,10
2024-04-10T23:10:08.376Z,8
2024-04-10T23:12:08.751Z,9
2024-04-10T23:14:08.472Z,8
2024-04-10T23:16:08.677Z,5
2024-04-10T23:18:17.419Z,6
2024-04-10T23:20:08.729Z,6
2024-04-10T23:22:08.831Z,9
2024-04-10T23:24:08.950Z,9
2024-04-10T23:26:09.003Z,8
2024-04-10T23:28:09.259Z,10
2024-04-10T23:30:09.256Z,8
2024-04-10T23:32:09.279Z,8
2024-04-10T23:34:09.559Z,9
2024-04-10T23:36:09.663Z,9
2024-04-10T23:38:09.535Z,12
2024-04-10T23:40:09.649Z,11
2024-04-10T23:42:09.728Z,13
2024-04-10T23:44:09.831Z,5
2024-04-10T23:46:09.913Z,11
2024-04-10T23:48:10.149Z,12
2024-04-10T23:50:10.119Z,6
2024-04-10T23:52:10.179Z,7
2024-04-10T23:54:10.278Z,10
2024-04-10T23:56:10.334Z,10
2024-04-10T23:58:10.432Z,8
